Terminal Aerodrome Forecast
Issued by NWS Dodge City, KS

Home | Current Version | Previous Version | Graphics & Text | Print | Product List | Glossary Off
Versions: 1 2 3 4 5 6 7 8 9 10 11 12 13 14 15 16 17 18 19 20 21 22 23 24 25 26 27 28 29 30 31 32 33 34

154
FTUS43 KDDC 230238 AAB
TAFDDC
TAF AMD
KDDC 230238Z 2303/2324 31012G20KT P6SM BKN050
      TEMPO 2303/2305 34035G45KT 3SM -SHRA BKN040
     FM231400 35015G25KT P6SM SCT150=

USA.gov is the U.S. government's official web portal to all federal, state and local government web resources and services.